sensor_id;sensor_type;location;lat;lon;timestamp;pressure;altitude;pressure_sealevel;temperature;humidity
10474;BME280;5284;50.446;7.904;2023-03-04T00:01:11;99211.19;;;-0.81;100.00
10474;BME280;5284;50.446;7.904;2023-03-04T00:06:14;99207.47;;;-0.74;100.00
10474;BME280;5284;50.446;7.904;2023-03-04T00:11:18;99212.50;;;-0.66;100.00
10474;BME280;5284;50.446;7.904;2023-03-04T00:16:21;99204.44;;;-0.60;100.00
10474;BME280;5284;50.446;7.904;2023-03-04T00:21:24;99200.72;;;-0.53;100.00
10474;BME280;5284;50.446;7.904;2023-03-04T00:26:28;99199.75;;;-0.49;100.00
10474;BME280;5284;50.446;7.904;2023-03-04T00:31:31;99196.78;;;-0.39;100.00
10474;BME280;5284;50.446;7.904;2023-03-04T00:36:34;99196.63;;;-0.33;100.00
10474;BME280;5284;50.446;7.904;2023-03-04T00:41:38;99204.31;;;-0.28;100.00
10474;BME280;5284;50.446;7.904;2023-03-04T00:46:41;99197.16;;;-0.23;100.00
10474;BME280;5284;50.446;7.904;2023-03-04T00:51:44;99196.97;;;-0.17;100.00
10474;BME280;5284;50.446;7.904;2023-03-04T00:56:49;99190.69;;;-0.12;100.00
10474;BME280;5284;50.446;7.904;2023-03-04T01:01:51;99182.63;;;-0.06;100.00
10474;BME280;5284;50.446;7.904;2023-03-04T01:06:54;99178.94;;;-0.01;100.00
10474;BME280;5284;50.446;7.904;2023-03-04T01:11:58;99177.91;;;0.05;100.00
10474;BME280;5284;50.446;7.904;2023-03-04T01:17:01;99177.72;;;0.09;100.00
10474;BME280;5284;50.446;7.904;2023-03-04T01:22:04;99166.22;;;0.13;100.00
10474;BME280;5284;50.446;7.904;2023-03-04T01:27:08;99156.50;;;0.17;100.00
10474;BME280;5284;50.446;7.904;2023-03-04T01:32:11;99155.47;;;0.21;100.00
10474;BME280;5284;50.446;7.904;2023-03-04T01:37:16;99136.06;;;0.26;100.00
10474;BME280;5284;50.446;7.904;2023-03-04T01:42:32;99137.72;;;0.29;100.00
10474;BME280;5284;50.446;7.904;2023-03-04T01:47:36;99127.91;;;0.34;100.00
10474;BME280;5284;50.446;7.904;2023-03-04T01:52:39;99124.34;;;0.36;100.00
10474;BME280;5284;50.446;7.904;2023-03-04T01:57:46;99128.56;;;0.40;100.00
10474;BME280;5284;50.446;7.904;2023-03-04T02:02:53;99122.25;;;0.46;100.00
10474;BME280;5284;50.446;7.904;2023-03-04T02:07:57;99118.84;;;0.44;100.00
10474;BME280;5284;50.446;7.904;2023-03-04T02:13:04;99113.41;;;0.48;100.00
10474;BME280;5284;50.446;7.904;2023-03-04T02:18:13;99114.16;;;0.52;100.00
10474;BME280;5284;50.446;7.904;2023-03-04T02:23:22;99102.72;;;0.54;100.00
10474;BME280;5284;50.446;7.904;2023-03-04T02:28:29;99102.50;;;0.60;100.00
10474;BME280;5284;50.446;7.904;2023-03-04T02:33:32;99110.38;;;0.60;100.00
10474;BME280;5284;50.446;7.904;2023-03-04T02:38:35;99103.28;;;0.62;100.00
10474;BME280;5284;50.446;7.904;2023-03-04T02:43:40;99098.03;;;0.62;100.00
10474;BME280;5284;50.446;7.904;2023-03-04T02:48:45;99090.16;;;0.62;100.00
10474;BME280;5284;50.446;7.904;2023-03-04T02:53:47;99089.19;;;0.65;100.00
10474;BME280;5284;50.446;7.904;2023-03-04T02:58:52;99089.06;;;0.68;100.00
10474;BME280;5284;50.446;7.904;2023-03-04T03:03:55;99087.28;;;0.70;100.00
10474;BME280;5284;50.446;7.904;2023-03-04T03:08:58;99081.13;;;0.71;100.00
10474;BME280;5284;50.446;7.904;2023-03-04T03:14:06;99083.63;;;0.74;100.00
10474;BME280;5284;50.446;7.904;2023-03-04T03:19:09;99081.91;;;0.73;100.00
10474;BME280;5284;50.446;7.904;2023-03-04T03:24:13;99077.47;;;0.75;100.00
10474;BME280;5284;50.446;7.904;2023-03-04T03:29:17;99066.75;;;0.79;100.00
10474;BME280;5284;50.446;7.904;2023-03-04T03:34:20;99068.47;;;0.80;100.00
10474;BME280;5284;50.446;7.904;2023-03-04T03:39:23;99072.59;;;0.87;100.00
10474;BME280;5284;50.446;7.904;2023-03-04T03:44:28;99079.50;;;0.90;100.00
10474;BME280;5284;50.446;7.904;2023-03-04T03:49:31;99071.50;;;0.93;100.00
10474;BME280;5284;50.446;7.904;2023-03-04T03:54:34;99072.25;;;0.96;100.00
10474;BME280;5284;50.446;7.904;2023-03-04T03:59:38;99068.75;;;0.96;100.00
10474;BME280;5284;50.446;7.904;2023-03-04T04:04:41;99074.66;;;1.01;100.00
10474;BME280;5284;50.446;7.904;2023-03-04T04:09:44;99065.00;;;1.03;100.00
10474;BME280;5284;50.446;7.904;2023-03-04T04:14:48;99067.38;;;1.09;100.00
10474;BME280;5284;50.446;7.904;2023-03-04T04:19:51;99055.03;;;1.11;100.00
10474;BME280;5284;50.446;7.904;2023-03-04T04:24:54;99055.84;;;1.13;100.00
10474;BME280;5284;50.446;7.904;2023-03-04T04:29:58;99060.09;;;1.15;100.00
10474;BME280;5284;50.446;7.904;2023-03-04T04:35:01;99050.38;;;1.17;100.00
10474;BME280;5284;50.446;7.904;2023-03-04T04:40:04;99046.78;;;1.20;100.00
10474;BME280;5284;50.446;7.904;2023-03-04T04:45:10;99044.97;;;1.22;100.00
10474;BME280;5284;50.446;7.904;2023-03-04T04:50:12;99046.53;;;1.26;100.00
10474;BME280;5284;50.446;7.904;2023-03-04T04:55:15;99043.91;;;1.26;100.00
10474;BME280;5284;50.446;7.904;2023-03-04T05:00:20;99042.88;;;1.30;100.00
10474;BME280;5284;50.446;7.904;2023-03-04T05:05:24;99045.44;;;1.31;100.00
10474;BME280;5284;50.446;7.904;2023-03-04T05:10:27;99043.66;;;1.32;100.00
10474;BME280;5284;50.446;7.904;2023-03-04T05:15:31;99043.63;;;1.33;100.00
10474;BME280;5284;50.446;7.904;2023-03-04T05:20:34;99050.59;;;1.34;100.00
10474;BME280;5284;50.446;7.904;2023-03-04T05:25:37;99042.56;;;1.37;100.00
10474;BME280;5284;50.446;7.904;2023-03-04T05:30:43;99042.63;;;1.36;100.00
10474;BME280;5284;50.446;7.904;2023-03-04T05:35:48;99038.06;;;1.41;100.00
10474;BME280;5284;50.446;7.904;2023-03-04T05:40:56;99043.31;;;1.41;100.00
10474;BME280;5284;50.446;7.904;2023-03-04T05:46:01;99041.47;;;1.43;100.00
10474;BME280;5284;50.446;7.904;2023-03-04T05:51:04;99046.59;;;1.46;100.00
10474;BME280;5284;50.446;7.904;2023-03-04T05:56:08;99043.97;;;1.46;100.00
10474;BME280;5284;50.446;7.904;2023-03-04T06:01:13;99052.66;;;1.48;100.00
10474;BME280;5284;50.446;7.904;2023-03-04T06:06:16;99046.47;;;1.48;100.00
10474;BME280;5284;50.446;7.904;2023-03-04T06:11:19;99061.16;;;1.54;100.00
10474;BME280;5284;50.446;7.904;2023-03-04T06:16:24;99065.41;;;1.56;100.00
10474;BME280;5284;50.446;7.904;2023-03-04T06:21:27;99068.78;;;1.60;100.00
10474;BME280;5284;50.446;7.904;2023-03-04T06:26:30;99073.91;;;1.63;100.00
10474;BME280;5284;50.446;7.904;2023-03-04T06:31:34;99077.19;;;1.68;100.00
10474;BME280;5284;50.446;7.904;2023-03-04T06:36:37;99073.50;;;1.72;100.00
10474;BME280;5284;50.446;7.904;2023-03-04T06:41:40;99086.53;;;1.75;100.00
10474;BME280;5284;50.446;7.904;2023-03-04T06:46:44;99095.06;;;1.80;100.00
10474;BME280;5284;50.446;7.904;2023-03-04T06:51:47;99094.91;;;1.84;100.00
10474;BME280;5284;50.446;7.904;2023-03-04T06:56:50;99085.03;;;1.89;100.00
10474;BME280;5284;50.446;7.904;2023-03-04T07:01:54;99091.88;;;1.93;100.00
10474;BME280;5284;50.446;7.904;2023-03-04T07:06:57;99097.75;;;2.00;100.00
10474;BME280;5284;50.446;7.904;2023-03-04T07:12:00;99099.13;;;2.08;100.00
10474;BME280;5284;50.446;7.904;2023-03-04T07:17:04;99103.34;;;2.12;100.00
10474;BME280;5284;50.446;7.904;2023-03-04T07:22:07;99103.91;;;2.19;100.00
10474;BME280;5284;50.446;7.904;2023-03-04T07:27:10;99115.91;;;2.26;100.00
10474;BME280;5284;50.446;7.904;2023-03-04T07:32:16;99112.94;;;2.33;100.00
10474;BME280;5284;50.446;7.904;2023-03-04T07:37:19;99122.94;;;2.45;100.00
10474;BME280;5284;50.446;7.904;2023-03-04T07:42:23;99116.28;;;2.57;100.00
10474;BME280;5284;50.446;7.904;2023-03-04T07:47:34;99121.47;;;2.58;100.00
10474;BME280;5284;50.446;7.904;2023-03-04T07:52:37;99120.13;;;2.68;100.00
10474;BME280;5284;50.446;7.904;2023-03-04T07:57:41;99124.28;;;2.74;100.00
10474;BME280;5284;50.446;7.904;2023-03-04T08:02:45;99123.06;;;2.81;100.00
10474;BME280;5284;50.446;7.904;2023-03-04T08:07:48;99121.31;;;2.81;100.00
10474;BME280;5284;50.446;7.904;2023-03-04T08:12:51;99133.28;;;2.88;100.00
10474;BME280;5284;50.446;7.904;2023-03-04T08:17:55;99135.44;;;2.98;100.00
10474;BME280;5284;50.446;7.904;2023-03-04T08:22:58;99129.00;;;3.04;100.00
10474;BME280;5284;50.446;7.904;2023-03-04T08:28:01;99132.06;;;3.13;100.00
10474;BME280;5284;50.446;7.904;2023-03-04T08:33:07;99132.47;;;3.24;100.00
10474;BME280;5284;50.446;7.904;2023-03-04T08:38:09;99135.09;;;3.24;100.00
10474;BME280;5284;50.446;7.904;2023-03-04T08:43:12;99129.53;;;3.30;100.00
10474;BME280;5284;50.446;7.904;2023-03-04T08:48:16;99134.31;;;3.41;100.00
10474;BME280;5284;50.446;7.904;2023-03-04T08:53:20;99131.72;;;3.58;100.00
10474;BME280;5284;50.446;7.904;2023-03-04T08:58:23;99134.84;;;3.47;100.00
10474;BME280;5284;50.446;7.904;2023-03-04T09:03:27;99134.16;;;3.62;100.00
10474;BME280;5284;50.446;7.904;2023-03-04T09:08:31;99131.63;;;3.78;100.00
10474;BME280;5284;50.446;7.904;2023-03-04T09:13:34;99131.69;;;3.76;100.00
10474;BME280;5284;50.446;7.904;2023-03-04T09:18:40;99131.53;;;3.79;100.00
10474;BME280;5284;50.446;7.904;2023-03-04T09:23:43;99143.78;;;3.80;100.00
10474;BME280;5284;50.446;7.904;2023-03-04T09:28:49;99139.69;;;3.75;100.00
10474;BME280;5284;50.446;7.904;2023-03-04T09:33:54;99145.75;;;3.77;100.00
10474;BME280;5284;50.446;7.904;2023-03-04T09:38:59;99140.94;;;3.85;100.00
10474;BME280;5284;50.446;7.904;2023-03-04T09:44:06;99145.91;;;3.91;100.00
10474;BME280;5284;50.446;7.904;2023-03-04T09:49:14;99145.38;;;4.01;100.00
10474;BME280;5284;50.446;7.904;2023-03-04T09:54:26;99135.06;;;3.97;100.00
10474;BME280;5284;50.446;7.904;2023-03-04T09:59:38;99137.53;;;4.00;100.00
10474;BME280;5284;50.446;7.904;2023-03-04T10:04:47;99136.69;;;3.99;100.00
10474;BME280;5284;50.446;7.904;2023-03-04T10:09:55;99126.47;;;4.10;100.00
10474;BME280;5284;50.446;7.904;2023-03-04T10:15:02;99126.91;;;4.18;100.00
10474;BME280;5284;50.446;7.904;2023-03-04T10:20:11;99117.81;;;4.07;100.00
10474;BME280;5284;50.446;7.904;2023-03-04T10:25:19;99120.81;;;4.18;100.00
10474;BME280;5284;50.446;7.904;2023-03-04T10:30:31;99115.50;;;4.35;100.00
10474;BME280;5284;50.446;7.904;2023-03-04T10:35:43;99112.41;;;4.27;100.00
10474;BME280;5284;50.446;7.904;2023-03-04T10:40:47;99110.38;;;4.32;100.00
10474;BME280;5284;50.446;7.904;2023-03-04T10:45:54;99100.28;;;4.40;100.00
10474;BME280;5284;50.446;7.904;2023-03-04T10:51:11;99109.13;;;4.55;100.00
10474;BME280;5284;50.446;7.904;2023-03-04T10:56:36;99100.75;;;4.97;100.00
10474;BME280;5284;50.446;7.904;2023-03-04T11:01:40;99099.38;;;5.05;100.00
10474;BME280;5284;50.446;7.904;2023-03-04T11:06:44;99100.09;;;4.92;100.00
10474;BME280;5284;50.446;7.904;2023-03-04T11:11:48;99107.50;;;5.18;100.00
10474;BME280;5284;50.446;7.904;2023-03-04T11:16:54;99086.09;;;5.53;100.00
10474;BME280;5284;50.446;7.904;2023-03-04T11:21:59;99086.56;;;5.75;100.00
10474;BME280;5284;50.446;7.904;2023-03-04T11:27:05;99089.00;;;5.64;100.00
10474;BME280;5284;50.446;7.904;2023-03-04T11:32:13;99079.34;;;5.63;100.00
10474;BME280;5284;50.446;7.904;2023-03-04T11:37:27;99093.00;;;5.40;100.00
10474;BME280;5284;50.446;7.904;2023-03-04T11:42:37;99071.94;;;5.39;100.00
10474;BME280;5284;50.446;7.904;2023-03-04T11:47:51;99064.94;;;5.53;100.00
10474;BME280;5284;50.446;7.904;2023-03-04T11:53:18;99062.88;;;5.74;100.00
10474;BME280;5284;50.446;7.904;2023-03-04T11:58:38;99051.97;;;5.64;100.00
10474;BME280;5284;50.446;7.904;2023-03-04T12:04:06;99050.59;;;5.73;100.00
10474;BME280;5284;50.446;7.904;2023-03-04T12:09:30;99039.13;;;5.88;100.00
10474;BME280;5284;50.446;7.904;2023-03-04T12:14:40;99034.97;;;6.13;100.00
10474;BME280;5284;50.446;7.904;2023-03-04T12:19:56;99029.84;;;6.10;100.00
10474;BME280;5284;50.446;7.904;2023-03-04T12:25:23;99024.84;;;6.19;100.00
10474;BME280;5284;50.446;7.904;2023-03-04T12:30:36;99023.19;;;6.32;100.00
10474;BME280;5284;50.446;7.904;2023-03-04T12:35:46;99018.53;;;6.36;100.00
10474;BME280;5284;50.446;7.904;2023-03-04T12:40:59;99010.78;;;6.33;100.00
10474;BME280;5284;50.446;7.904;2023-03-04T12:46:13;99008.41;;;6.14;100.00
10474;BME280;5284;50.446;7.904;2023-03-04T12:51:28;98997.72;;;6.30;100.00
10474;BME280;5284;50.446;7.904;2023-03-04T12:56:38;98996.03;;;6.29;100.00
10474;BME280;5284;50.446;7.904;2023-03-04T13:01:49;98985.13;;;6.19;100.00
10474;BME280;5284;50.446;7.904;2023-03-04T13:07:07;98982.25;;;5.95;100.00
10474;BME280;5284;50.446;7.904;2023-03-04T13:12:17;98980.66;;;5.92;100.00
10474;BME280;5284;50.446;7.904;2023-03-04T13:17:38;98975.91;;;5.83;100.00
10474;BME280;5284;50.446;7.904;2023-03-04T13:22:46;98971.88;;;5.76;100.00
10474;BME280;5284;50.446;7.904;2023-03-04T13:33:46;98969.69;;;5.69;100.00
10474;BME280;5284;50.446;7.904;2023-03-04T13:38:59;98967.81;;;5.71;100.00
10474;BME280;5284;50.446;7.904;2023-03-04T13:49:23;98957.28;;;5.85;100.00
10474;BME280;5284;50.446;7.904;2023-03-04T13:54:29;98951.34;;;5.95;100.00
10474;BME280;5284;50.446;7.904;2023-03-04T13:59:38;98956.09;;;6.04;100.00
10474;BME280;5284;50.446;7.904;2023-03-04T14:04:44;98953.94;;;5.97;100.00
10474;BME280;5284;50.446;7.904;2023-03-04T14:09:54;98952.66;;;5.88;100.00
10474;BME280;5284;50.446;7.904;2023-03-04T14:15:03;98951.94;;;6.00;100.00
10474;BME280;5284;50.446;7.904;2023-03-04T14:20:22;98947.84;;;5.95;100.00
10474;BME280;5284;50.446;7.904;2023-03-04T14:25:28;98934.72;;;5.79;100.00
10474;BME280;5284;50.446;7.904;2023-03-04T14:30:34;98929.06;;;5.70;100.00
10474;BME280;5284;50.446;7.904;2023-03-04T14:35:46;98926.09;;;5.60;100.00
10474;BME280;5284;50.446;7.904;2023-03-04T14:40:51;98921.75;;;5.59;100.00
10474;BME280;5284;50.446;7.904;2023-03-04T14:45:59;98922.78;;;5.57;100.00
10474;BME280;5284;50.446;7.904;2023-03-04T14:51:04;98910.53;;;5.40;100.00
10474;BME280;5284;50.446;7.904;2023-03-04T14:56:09;98911.84;;;5.33;100.00
10474;BME280;5284;50.446;7.904;2023-03-04T15:01:16;98900.53;;;5.31;100.00
10474;BME280;5284;50.446;7.904;2023-03-04T15:06:22;98896.16;;;5.30;100.00
10474;BME280;5284;50.446;7.904;2023-03-04T15:11:30;98903.16;;;5.31;100.00
10474;BME280;5284;50.446;7.904;2023-03-04T15:16:54;98897.63;;;5.36;100.00
10474;BME280;5284;50.446;7.904;2023-03-04T15:22:04;98893.88;;;5.24;100.00
10474;BME280;5284;50.446;7.904;2023-03-04T15:27:10;98889.72;;;5.20;100.00
10474;BME280;5284;50.446;7.904;2023-03-04T15:32:16;98878.03;;;5.24;100.00
10474;BME280;5284;50.446;7.904;2023-03-04T15:37:21;98881.78;;;5.20;100.00
10474;BME280;5284;50.446;7.904;2023-03-04T15:42:24;98881.28;;;5.14;100.00
10474;BME280;5284;50.446;7.904;2023-03-04T15:47:30;98877.72;;;5.15;100.00
10474;BME280;5284;50.446;7.904;2023-03-04T15:52:32;98873.63;;;5.09;100.00
10474;BME280;5284;50.446;7.904;2023-03-04T15:57:37;98870.22;;;5.07;100.00
10474;BME280;5284;50.446;7.904;2023-03-04T16:02:41;98870.31;;;5.06;100.00
10474;BME280;5284;50.446;7.904;2023-03-04T16:07:46;98879.44;;;5.00;100.00
10474;BME280;5284;50.446;7.904;2023-03-04T16:12:50;98884.25;;;4.94;100.00
10474;BME280;5284;50.446;7.904;2023-03-04T16:17:55;98878.34;;;4.89;100.00
10474;BME280;5284;50.446;7.904;2023-03-04T16:23:00;98881.09;;;4.87;100.00
10474;BME280;5284;50.446;7.904;2023-03-04T16:28:04;98884.50;;;4.89;100.00
10474;BME280;5284;50.446;7.904;2023-03-04T16:33:09;98882.97;;;4.85;100.00
10474;BME280;5284;50.446;7.904;2023-03-04T16:38:20;98880.41;;;4.84;100.00
10474;BME280;5284;50.446;7.904;2023-03-04T16:43:26;98883.31;;;4.79;100.00
10474;BME280;5284;50.446;7.904;2023-03-04T16:48:31;98873.00;;;4.75;100.00
10474;BME280;5284;50.446;7.904;2023-03-04T16:53:36;98870.28;;;4.76;100.00
10474;BME280;5284;50.446;7.904;2023-03-04T16:58:40;98866.09;;;4.72;100.00
10474;BME280;5284;50.446;7.904;2023-03-04T17:03:44;98856.75;;;4.67;100.00
10474;BME280;5284;50.446;7.904;2023-03-04T17:08:48;98865.44;;;4.69;100.00
10474;BME280;5284;50.446;7.904;2023-03-04T17:13:51;98862.03;;;4.67;100.00
10474;BME280;5284;50.446;7.904;2023-03-04T17:18:55;98861.34;;;4.63;100.00
10474;BME280;5284;50.446;7.904;2023-03-04T17:23:58;98858.63;;;4.65;100.00
10474;BME280;5284;50.446;7.904;2023-03-04T17:29:01;98861.25;;;4.65;100.00
10474;BME280;5284;50.446;7.904;2023-03-04T17:34:05;98865.78;;;4.63;100.00
10474;BME280;5284;50.446;7.904;2023-03-04T17:39:09;98864.16;;;4.60;100.00
10474;BME280;5284;50.446;7.904;2023-03-04T17:44:12;98863.47;;;4.57;100.00
10474;BME280;5284;50.446;7.904;2023-03-04T17:49:17;98862.78;;;4.53;100.00
10474;BME280;5284;50.446;7.904;2023-03-04T17:54:20;98864.69;;;4.51;100.00
10474;BME280;5284;50.446;7.904;2023-03-04T17:59:23;98866.44;;;4.51;100.00
10474;BME280;5284;50.446;7.904;2023-03-04T18:04:27;98872.78;;;4.48;100.00
10474;BME280;5284;50.446;7.904;2023-03-04T18:09:30;98871.31;;;4.43;100.00
10474;BME280;5284;50.446;7.904;2023-03-04T18:14:33;98867.91;;;4.41;100.00
10474;BME280;5284;50.446;7.904;2023-03-04T18:19:38;98869.78;;;4.39;100.00
10474;BME280;5284;50.446;7.904;2023-03-04T18:24:41;98870.63;;;4.40;100.00
10474;BME280;5284;50.446;7.904;2023-03-04T18:29:44;98868.91;;;4.39;100.00
10474;BME280;5284;50.446;7.904;2023-03-04T18:34:48;98867.91;;;4.41;100.00
10474;BME280;5284;50.446;7.904;2023-03-04T18:39:51;98873.19;;;4.41;100.00
10474;BME280;5284;50.446;7.904;2023-03-04T18:44:54;98870.72;;;4.38;100.00
10474;BME280;5284;50.446;7.904;2023-03-04T18:49:58;98867.22;;;4.38;100.00
10474;BME280;5284;50.446;7.904;2023-03-04T18:55:01;98875.13;;;4.38;100.00
10474;BME280;5284;50.446;7.904;2023-03-04T19:00:08;98872.59;;;4.36;100.00
10474;BME280;5284;50.446;7.904;2023-03-04T19:05:18;98869.09;;;4.36;100.00
10474;BME280;5284;50.446;7.904;2023-03-04T19:10:21;98866.53;;;4.34;100.00
10474;BME280;5284;50.446;7.904;2023-03-04T19:15:26;98870.03;;;4.35;100.00
10474;BME280;5284;50.446;7.904;2023-03-04T19:20:30;98865.00;;;4.30;100.00
10474;BME280;5284;50.446;7.904;2023-03-04T19:25:35;98863.31;;;4.29;100.00
10474;BME280;5284;50.446;7.904;2023-03-04T19:30:40;98872.47;;;4.22;100.00
10474;BME280;5284;50.446;7.904;2023-03-04T19:35:45;98867.03;;;4.25;100.00
10474;BME280;5284;50.446;7.904;2023-03-04T19:40:48;98868.06;;;4.23;100.00
10474;BME280;5284;50.446;7.904;2023-03-04T19:45:52;98863.78;;;4.20;100.00
10474;BME280;5284;50.446;7.904;2023-03-04T19:50:57;98863.13;;;4.17;100.00
10474;BME280;5284;50.446;7.904;2023-03-04T19:56:00;98870.28;;;4.15;100.00
10474;BME280;5284;50.446;7.904;2023-03-04T20:01:03;98867.63;;;4.15;100.00
10474;BME280;5284;50.446;7.904;2023-03-04T20:06:08;98866.09;;;4.11;100.00
10474;BME280;5284;50.446;7.904;2023-03-04T20:11:11;98865.22;;;4.10;100.00
10474;BME280;5284;50.446;7.904;2023-03-04T20:16:14;98864.47;;;4.08;100.00
10474;BME280;5284;50.446;7.904;2023-03-04T20:21:19;98861.13;;;4.05;100.00
10474;BME280;5284;50.446;7.904;2023-03-04T20:26:22;98863.88;;;4.03;100.00
10474;BME280;5284;50.446;7.904;2023-03-04T20:31:27;98865.03;;;3.98;100.00
10474;BME280;5284;50.446;7.904;2023-03-04T20:36:33;98866.84;;;3.97;100.00
10474;BME280;5284;50.446;7.904;2023-03-04T20:41:37;98874.75;;;3.97;100.00
10474;BME280;5284;50.446;7.904;2023-03-04T20:46:41;98873.81;;;3.98;100.00
10474;BME280;5284;50.446;7.904;2023-03-04T20:51:47;98868.63;;;3.97;100.00
10474;BME280;5284;50.446;7.904;2023-03-04T20:56:51;98866.91;;;3.96;100.00
10474;BME280;5284;50.446;7.904;2023-03-04T21:01:53;98864.19;;;3.97;100.00
10474;BME280;5284;50.446;7.904;2023-03-04T21:06:58;98862.50;;;3.96;100.00
10474;BME280;5284;50.446;7.904;2023-03-04T21:12:01;98851.19;;;3.94;100.00
10474;BME280;5284;50.446;7.904;2023-03-04T21:17:05;98853.06;;;3.92;100.00
10474;BME280;5284;50.446;7.904;2023-03-04T21:22:13;98849.53;;;3.92;100.00
10474;BME280;5284;50.446;7.904;2023-03-04T21:27:17;98845.19;;;3.91;100.00
10474;BME280;5284;50.446;7.904;2023-03-04T21:32:22;98850.47;;;3.91;100.00
10474;BME280;5284;50.446;7.904;2023-03-04T21:37:27;98844.34;;;3.90;100.00
10474;BME280;5284;50.446;7.904;2023-03-04T21:42:30;98844.44;;;3.89;100.00
10474;BME280;5284;50.446;7.904;2023-03-04T21:47:33;98840.94;;;3.88;100.00
10474;BME280;5284;50.446;7.904;2023-03-04T21:52:38;98843.66;;;3.87;100.00
10474;BME280;5284;50.446;7.904;2023-03-04T21:57:41;98849.88;;;3.86;100.00
10474;BME280;5284;50.446;7.904;2023-03-04T22:02:45;98848.06;;;3.86;100.00
10474;BME280;5284;50.446;7.904;2023-03-04T22:07:49;98842.81;;;3.86;100.00
10474;BME280;5284;50.446;7.904;2023-03-04T22:12:53;98843.06;;;3.82;100.00
10474;BME280;5284;50.446;7.904;2023-03-04T22:17:56;98843.06;;;3.82;100.00
10474;BME280;5284;50.446;7.904;2023-03-04T22:23:00;98842.19;;;3.81;100.00
10474;BME280;5284;50.446;7.904;2023-03-04T22:28:04;98848.41;;;3.80;100.00
10474;BME280;5284;50.446;7.904;2023-03-04T22:33:08;98835.50;;;3.76;100.00
10474;BME280;5284;50.446;7.904;2023-03-04T22:38:12;98838.91;;;3.78;100.00
10474;BME280;5284;50.446;7.904;2023-03-04T22:43:15;98836.50;;;3.73;100.00
10474;BME280;5284;50.446;7.904;2023-03-04T22:48:17;98837.31;;;3.74;100.00
10474;BME280;5284;50.446;7.904;2023-03-04T22:53:22;98829.50;;;3.72;100.00
10474;BME280;5284;50.446;7.904;2023-03-04T22:58:26;98846.28;;;3.71;100.00
10474;BME280;5284;50.446;7.904;2023-03-04T23:03:29;98835.88;;;3.68;100.00
10474;BME280;5284;50.446;7.904;2023-03-04T23:08:34;98836.81;;;3.67;100.00
10474;BME280;5284;50.446;7.904;2023-03-04T23:13:39;98835.78;;;3.70;100.00
10474;BME280;5284;50.446;7.904;2023-03-04T23:18:43;98835.88;;;3.68;100.00
10474;BME280;5284;50.446;7.904;2023-03-04T23:23:48;98827.97;;;3.68;100.00
10474;BME280;5284;50.446;7.904;2023-03-04T23:28:52;98828.97;;;3.66;100.00
10474;BME280;5284;50.446;7.904;2023-03-04T23:33:57;98825.66;;;3.62;100.00
10474;BME280;5284;50.446;7.904;2023-03-04T23:39:03;98826.50;;;3.63;100.00
10474;BME280;5284;50.446;7.904;2023-03-04T23:44:06;98813.31;;;3.63;100.00
10474;BME280;5284;50.446;7.904;2023-03-04T23:49:11;98816.91;;;3.62;100.00
10474;BME280;5284;50.446;7.904;2023-03-04T23:54:16;98800.41;;;3.58;100.00
10474;BME280;5284;50.446;7.904;2023-03-04T23:59:19;98800.53;;;3.55;100.00
